Terminal Aerodrome Forecast
Issued by NWS

Home | Current Version | Previous Version | Text Only | Print | Product List | Glossary Off
Versions: 1 2 3 4 5 6 7 8 9 10 11 12 13 14 15 16 17 18 19 20 21 22 23

000
FTUS43 KICT 040919 AAB
TAFCNU
TAF AMD
KCNU 040919Z 0409/0506 12006KT 2SM -RA BR OVC003
      TEMPO 0409/0413 4SM -RA BR OVC007
     FM041300 25004KT P6SM OVC007
     FM041800 29004KT P6SM SCT015
     FM050200 22005KT P6SM SKC=

USA.gov is the U.S. government's official web portal to all federal, state and local government web resources and services.